This is the latest recevied weather packets stored in our database for station/object SP6DW-13. If no packets are shown the sender has not sent any weather packets the latest 10 day(s).
| Time | Temp. | Humidity | Pressure | Rain* | Wind** | Luminosity | Snow |
|---|---|---|---|---|---|---|---|
| 1777478116 | 12.78° C | 29% | 1030 hPa | 0 mm | - | - | - |
| 1777476316 | 13.33° C | 27% | 1029.9 hPa | 0 mm | - | - | - |
| 1777475116 | 12.78° C | 27% | 1029.8 hPa | 0 mm | - | - | - |
| 1777474516 | 13.33° C | 26% | 1029.8 hPa | 0 mm | - | - | - |
| 1777469116 | 12.78° C | 28% | 1029.7 hPa | 0 mm | - | - | - |
| 1777463722 | 11.11° C | 33% | 1029.6 hPa | 0 mm | - | - | - |
| 1777461317 | 10.56° C | 32% | 1029.5 hPa | 0 mm | - | - | - |
| 1777456548 | 8.33° C | 33% | 1029.9 hPa | 0 mm | - | - | - |
| 1777455919 | 8.33° C | 32% | 1029.9 hPa | 0 mm | - | - | - |
| 1777454743 | 8.33° C | 35% | 1029.7 hPa | 0 mm | - | - | - |
| 1777452928 | 8.33° C | 36% | 1029.8 hPa | 0 mm | - | - | - |
| 1777449315 | 7.78° C | 42% | 1029.4 hPa | 0 mm | - | - | - |
| 1777446316 | 6.67° C | 50% | 1029.2 hPa | 0 mm | - | - | - |
| 1777440936 | 2.78° C | 65% | 1028.6 hPa | 0 mm | - | - | - |
| 1777434316 | 0.56° C | 72% | 1027.6 hPa | 0 mm | - | - | - |
| 1777427141 | 0.56° C | 69% | 1027.4 hPa | 0 mm | - | - | - |
| 1777419340 | 2.22° C | 67% | 1026.4 hPa | 0 mm | - | - | - |
| 1777418116 | 2.78° C | 64% | 1026.4 hPa | 0 mm | - | - | - |
| 1777417518 | 3.33° C | 63% | 1026.4 hPa | 0 mm | - | - | - |
| 1777415716 | 5.56° C | 49% | 1026.4 hPa | 0 mm | - | - | - |
| 1777409715 | 7.22° C | 42% | 1026.1 hPa | 0 mm | - | - | - |
| 1777409122 | 7.78° C | 41% | 1026 hPa | 0 mm | - | - | - |
| 1777406136 | 8.89° C | 38% | 1025.8 hPa | 0 mm | - | - | - |
| 1777404315 | 9.44° C | 37% | 1025.6 hPa | 0 mm | - | - | - |
| 1777401927 | 10.56° C | 35% | 1025 hPa | 0 mm | - | - | - |
* Rain latest hour (hover to see other rain measurements)
** Current wind speed in m/s (hover to see current wind gust speed)